Time;durP1;ratioP1;P1;durP2;ratioP2;P2;SDS_P1;SDS_P2;PMS_P1;PMS_P2;Temp;Humidity;BMP_temperature;BMP_pressure;BME280_temperature;BME280_humidity;BME280_pressure;Samples;Min_cycle;Max_cycle;Signal;HPM_P1;HPM_P2
2021/12/11 00:01:43;;;;;;;11.45;8.07;;;;;;;7.90;49.37;100038.97;5029636;28;20057;-77
2021/12/11 00:04:19;;;;;;;13.85;8.43;;;;;;;7.89;49.29;100041.78;5016495;28;20492;-77
2021/12/11 00:06:51;;;;;;;13.10;8.13;;;;;;;7.87;49.15;100044.59;5047763;28;20037;-77
2021/12/11 00:09:20;;;;;;;12.30;8.43;;;;;;;7.87;49.21;100049.13;5044010;28;20077;-77
2021/12/11 00:12:00;;;;;;;14.45;8.55;;;;;;;7.87;48.94;100054.53;5040767;28;20052;-77
2021/12/11 00:14:32;;;;;;;14.20;8.02;;;;;;;7.86;48.96;100069.88;5023583;28;20517;-77
2021/12/11 00:16:59;;;;;;;13.77;8.43;;;;;;;7.84;48.93;100068.25;5026222;28;20069;-77
2021/12/11 00:19:29;;;;;;;14.18;8.52;;;;;;;7.85;49.16;100080.78;5032884;28;20050;-77
2021/12/11 00:22:12;;;;;;;13.13;8.57;;;;;;;7.84;49.39;100079.91;5033445;28;20046;-78
2021/12/11 00:24:40;;;;;;;15.30;8.63;;;;;;;7.80;49.26;100091.03;5032361;28;20045;-78
2021/12/11 00:27:10;;;;;;;13.55;8.82;;;;;;;7.81;49.37;100088.25;5034038;28;20050;-77
2021/12/11 00:29:38;;;;;;;13.18;8.40;;;;;;;7.81;49.51;100106.28;5027472;28;20046;-77
2021/12/11 00:32:23;;;;;;;12.30;8.50;;;;;;;7.80;49.44;100118.94;5015983;28;20090;-77
2021/12/11 00:34:51;;;;;;;14.25;8.77;;;;;;;7.81;49.53;100122.50;5030193;28;20045;-77
2021/12/11 00:37:22;;;;;;;11.98;8.50;;;;;;;7.81;49.46;100126.09;5050512;28;20129;-77
2021/12/11 00:39:55;;;;;;;13.65;9.13;;;;;;;7.81;49.57;100131.47;5040297;28;20488;-78
2021/12/11 00:42:30;;;;;;;12.60;8.87;;;;;;;7.79;49.62;100129.84;5005238;28;20563;-78
2021/12/11 00:45:09;;;;;;;13.27;8.65;;;;;;;7.81;49.67;100141.44;5012617;28;20121;-77
2021/12/11 00:47:47;;;;;;;13.70;8.52;;;;;;;7.82;50.25;100141.31;5032252;28;20081;-78
2021/12/11 00:50:15;;;;;;;13.50;8.82;;;;;;;7.81;50.11;100149.53;5031703;28;20049;-77
2021/12/11 00:53:22;;;;;;;12.82;8.43;;;;;;;7.78;50.49;100156.00;5015078;28;20057;-77
2021/12/11 00:55:55;;;;;;;13.75;8.80;;;;;;;7.79;49.96;100154.16;4992802;28;20107;-77
2021/12/11 00:58:26;;;;;;;;;;;;;;;7.61;50.67;100159.81;5033424;28;20087;-77
2021/12/11 01:00:58;;;;;;;12.68;7.97;;;;;;;7.78;50.18;100164.09;5032921;28;19971;-77
2021/12/11 01:03:39;;;;;;;13.52;8.50;;;;;;;7.82;50.30;100173.75;5007473;28;20061;-77
2021/12/11 01:06:11;;;;;;;14.25;8.88;;;;;;;7.82;50.04;100175.59;5024927;28;20091;-77
2021/12/11 01:08:42;;;;;;;13.52;8.30;;;;;;;7.82;49.94;100181.88;5032772;28;20454;-77
2021/12/11 01:11:18;;;;;;;13.90;9.00;;;;;;;7.84;50.14;100192.53;5024906;28;20056;-77
2021/12/11 01:14:08;;;;;;;13.73;8.68;;;;;;;7.84;50.48;100209.63;5014522;28;20548;-77
2021/12/11 01:16:36;;;;;;;15.07;9.40;;;;;;;7.82;49.92;100203.47;5026022;28;20045;-77
2021/12/11 01:19:05;;;;;;;13.10;8.75;;;;;;;7.83;49.92;100213.28;5032242;28;20052;-78
2021/12/11 01:24:11;;;;;;;14.35;8.77;;;;;;;7.86;50.39;100236.56;5031575;28;20060;-77
2021/12/11 01:26:44;;;;;;;14.13;9.00;;;;;;;7.86;50.36;100247.38;5046518;28;20547;-77
2021/12/11 01:29:12;;;;;;;13.73;8.98;;;;;;;7.83;49.96;100247.56;5026193;28;20488;-77
2021/12/11 01:31:39;;;;;;;11.68;8.40;;;;;;;7.85;50.34;100251.91;5032113;28;20053;-77
2021/12/11 01:34:07;;;;;;;13.43;8.18;;;;;;;7.85;49.91;100260.00;5031676;28;20046;-77
2021/12/11 01:36:34;;;;;;;13.55;9.07;;;;;;;7.87;50.30;100265.31;5044161;28;20087;-78
2021/12/11 01:39:06;;;;;;;15.23;9.77;;;;;;;7.89;50.46;100269.66;5036515;28;20048;-77
2021/12/11 01:41:34;;;;;;;14.63;9.07;;;;;;;7.88;50.29;100277.88;5032640;28;20045;-77
2021/12/11 01:44:08;;;;;;;14.32;8.93;;;;;;;7.91;50.59;100285.75;5031414;28;20049;-77
2021/12/11 01:46:36;;;;;;;14.70;9.75;;;;;;;7.90;50.48;100287.63;5018638;28;20065;-77
2021/12/11 01:49:07;;;;;;;17.55;9.43;;;;;;;7.92;50.57;100301.88;5031169;28;20060;-77
2021/12/11 01:51:41;;;;;;;13.45;8.98;;;;;;;7.93;50.79;100309.03;5032080;28;20409;-77
2021/12/11 01:54:35;;;;;;;16.20;9.57;;;;;;;7.95;50.85;100308.94;5029082;28;20096;-77
2021/12/11 01:57:10;;;;;;;13.95;9.05;;;;;;;7.94;50.65;100320.72;5031691;28;20053;-77
2021/12/11 01:59:44;;;;;;;15.07;9.60;;;;;;;7.95;50.70;100319.75;5017828;28;20045;-77
2021/12/11 02:02:20;;;;;;;16.55;9.93;;;;;;;7.95;50.56;100333.25;5019288;28;20042;-77
2021/12/11 02:04:50;;;;;;;16.55;9.82;;;;;;;7.93;50.44;100336.06;5030749;28;20390;-77
2021/12/11 02:07:21;;;;;;;17.85;10.30;;;;;;;7.93;50.40;100338.75;5037433;28;20052;-77
2021/12/11 02:09:56;;;;;;;19.08;10.65;;;;;;;7.91;50.39;100335.28;5029699;28;20045;-77
2021/12/11 02:12:38;;;;;;;17.55;9.80;;;;;;;7.93;50.47;100340.59;5031841;28;20053;-77
2021/12/11 02:15:14;;;;;;;17.50;10.02;;;;;;;7.94;50.70;100356.72;5015719;28;20053;-77
2021/12/11 02:18:00;;;;;;;20.55;11.30;;;;;;;7.95;50.97;100365.69;5030699;28;22109;-77
2021/12/11 02:20:34;;;;;;;18.10;11.02;;;;;;;7.94;50.78;100370.25;5020473;28;20496;-77
2021/12/11 02:23:02;;;;;;;19.85;11.07;;;;;;;7.93;50.42;100365.78;5030638;28;20448;-77
2021/12/11 02:25:39;;;;;;;19.70;10.55;;;;;;;7.96;50.42;100372.84;5013978;28;20488;-76
2021/12/11 02:28:14;;;;;;;18.27;10.45;;;;;;;7.95;50.74;100380.09;5038383;28;20054;-77
2021/12/11 02:31:05;;;;;;;17.67;10.40;;;;;;;7.97;50.95;100385.41;5037035;28;20045;-77
2021/12/11 02:33:32;;;;;;;18.13;10.30;;;;;;;7.93;50.41;100394.66;5053986;28;20056;-77
2021/12/11 02:36:10;;;;;;;18.63;10.52;;;;;;;7.94;50.68;100391.00;5067606;28;20041;-77
2021/12/11 02:38:55;;;;;;;20.13;10.40;;;;;;;7.96;51.21;100399.88;5048339;28;20560;-77
2021/12/11 02:41:38;;;;;;;18.02;10.13;;;;;;;7.95;51.17;100407.13;5038069;28;20484;-77
2021/12/11 02:44:21;;;;;;;19.95;9.63;;;;;;;7.94;51.09;100410.78;5036197;28;20053;-77
2021/12/11 02:47:25;;;;;;;19.88;11.18;;;;;;;7.93;51.01;100408.16;5025803;28;20080;-77
2021/12/11 02:50:00;;;;;;;16.50;10.20;;;;;;;7.92;50.79;100412.69;5034492;28;20050;-77
2021/12/11 02:52:35;;;;;;;17.80;10.10;;;;;;;7.92;50.88;100425.34;5037164;28;20853;-77
2021/12/11 02:55:09;;;;;;;19.30;10.38;;;;;;;7.92;51.03;100433.47;5052446;28;20496;-77
2021/12/11 02:57:40;;;;;;;17.83;9.57;;;;;;;7.91;51.03;100431.72;5024928;28;20451;-76
2021/12/11 03:00:20;;;;;;;18.90;11.13;;;;;;;7.93;51.34;100429.78;5037168;28;20049;-77
2021/12/11 03:02:50;;;;;;;17.13;9.80;;;;;;;7.90;51.02;100428.19;5022409;28;20123;-77
2021/12/11 03:05:22;;;;;;;21.20;10.68;;;;;;;7.91;50.89;100431.72;5042824;28;20045;-77
2021/12/11 03:07:52;;;;;;;18.92;10.77;;;;;;;7.91;50.74;100439.81;5024042;28;20538;-77
2021/12/11 03:10:26;;;;;;;17.30;9.60;;;;;;;7.91;51.27;100432.59;5046790;28;20118;-77
2021/12/11 03:12:55;;;;;;;17.73;8.90;;;;;;;7.90;50.95;100440.81;5041381;28;20389;-77
2021/12/11 03:15:23;;;;;;;15.82;9.43;;;;;;;7.91;50.78;100437.13;5037028;28;20049;-76
2021/12/11 03:17:50;;;;;;;15.82;9.23;;;;;;;7.92;50.97;100444.28;5037797;28;20507;-77
2021/12/11 03:20:20;;;;;;;18.23;9.98;;;;;;;7.92;50.93;100464.06;5011042;28;20501;-77
2021/12/11 03:22:47;;;;;;;16.35;9.95;;;;;;;7.92;50.56;100457.78;5037193;28;20497;-77
2021/12/11 03:25:18;;;;;;;17.20;10.70;;;;;;;7.93;50.94;100471.22;5037724;28;20132;-77
2021/12/11 03:27:47;;;;;;;20.08;10.85;;;;;;;7.93;50.88;100475.75;5037994;28;20057;-77
2021/12/11 03:30:21;;;;;;;18.35;10.27;;;;;;;7.94;50.96;100488.31;5035995;28;20088;-77
2021/12/11 03:32:50;;;;;;;18.80;10.50;;;;;;;7.92;50.92;100492.91;5037412;28;20461;-77
2021/12/11 03:35:18;;;;;;;16.83;9.20;;;;;;;7.91;50.79;100489.34;5039795;28;20103;-76
2021/12/11 03:37:44;;;;;;;15.38;9.32;;;;;;;7.90;50.67;100493.03;5024572;28;20096;-77
2021/12/11 03:40:12;;;;;;;17.55;9.80;;;;;;;7.90;50.56;100490.34;5037331;28;20500;-77
2021/12/11 03:42:42;;;;;;;18.25;10.48;;;;;;;7.90;50.77;100498.44;5035220;28;20100;-77
2021/12/11 03:45:18;;;;;;;15.80;9.82;;;;;;;7.91;51.33;100507.41;5033162;28;20076;-77
2021/12/11 03:47:50;;;;;;;17.30;10.63;;;;;;;7.90;51.10;100505.69;5033867;28;20045;-77
2021/12/11 03:50:20;;;;;;;18.25;9.80;;;;;;;7.88;50.99;100502.19;5028629;28;20042;-77
2021/12/11 03:52:49;;;;;;;17.85;10.32;;;;;;;7.87;51.11;100506.72;5029834;28;20149;-77
2021/12/11 03:55:23;;;;;;;17.33;10.40;;;;;;;7.88;51.19;100519.28;5009619;28;20406;-77
2021/12/11 03:57:57;;;;;;;19.38;10.38;;;;;;;7.86;51.01;100515.81;5023400;28;20050;-77
2021/12/11 04:00:42;;;;;;;15.93;9.55;;;;;;;7.86;50.79;100528.44;5048625;28;20049;-77
2021/12/11 04:03:12;;;;;;;17.63;10.20;;;;;;;7.85;51.18;100530.28;5033465;28;20054;-77
2021/12/11 04:05:41;;;;;;;19.48;10.95;;;;;;;7.86;51.08;100534.72;5034373;28;20053;-77
2021/12/11 04:08:11;;;;;;;18.70;11.23;;;;;;;7.86;50.93;100537.44;5033949;28;20050;-77
2021/12/11 04:10:38;;;;;;;18.50;10.48;;;;;;;7.86;50.90;100539.25;5043234;28;20107;-77
2021/12/11 04:13:07;;;;;;;19.92;11.95;;;;;;;7.87;51.14;100549.09;5012947;28;20107;-77
2021/12/11 04:15:36;;;;;;;19.77;11.93;;;;;;;7.84;50.74;100550.16;5030375;28;20522;-77
2021/12/11 04:18:04;;;;;;;20.80;11.65;;;;;;;7.85;51.01;100556.44;5028835;28;20103;-77
2021/12/11 04:20:36;;;;;;;18.60;11.60;;;;;;;7.83;51.07;100559.22;5015159;28;20042;-77
2021/12/11 04:23:04;;;;;;;17.38;10.10;;;;;;;7.84;50.99;100568.19;5032876;28;20900;-77
2021/12/11 04:25:31;;;;;;;19.02;10.55;;;;;;;7.84;51.08;100573.59;5033514;28;20106;-77
2021/12/11 04:27:58;;;;;;;21.10;11.88;;;;;;;7.83;51.06;100572.72;5015718;28;20087;-77
2021/12/11 04:30:26;;;;;;;18.00;11.10;;;;;;;7.84;50.86;100579.00;5027571;28;20049;-77
2021/12/11 04:32:54;;;;;;;20.17;11.73;;;;;;;7.84;51.32;100588.00;5021361;28;20057;-77
2021/12/11 04:35:26;;;;;;;19.08;10.73;;;;;;;7.84;51.11;100584.41;5015153;28;20219;-77
2021/12/11 04:37:54;;;;;;;18.33;10.77;;;;;;;7.83;51.21;100599.75;5040417;28;20081;-77
2021/12/11 04:40:25;;;;;;;18.35;10.85;;;;;;;7.86;51.42;100599.59;5032896;28;20057;-77
2021/12/11 04:45:53;;;;;;;18.40;10.75;;;;;;;7.88;51.26;100602.22;5032471;28;20053;-76
2021/12/11 04:48:39;;;;;;;19.30;11.10;;;;;;;7.86;51.60;100604.13;4989574;28;20049;-77
2021/12/11 04:59:25;;;;;;;18.67;11.27;;;;;;;7.85;51.23;100611.34;5033286;28;20500;-77
2021/12/11 05:10:06;;;;;;;18.90;10.35;;;;;;;7.84;51.47;100628.53;5042633;28;20049;-77
2021/12/11 05:12:36;;;;;;;19.63;9.85;;;;;;;7.82;51.11;100625.06;5035829;28;20795;-77
2021/12/11 05:15:12;;;;;;;19.17;11.20;;;;;;;7.84;51.36;100633.06;5031108;28;20045;-77
2021/12/11 05:17:39;;;;;;;23.40;12.20;;;;;;;7.80;51.06;100632.38;5015705;28;20161;-77
2021/12/11 05:20:10;;;;;;;21.90;11.88;;;;;;;7.84;51.21;100641.16;5013879;28;20133;-77
2021/12/11 05:22:37;;;;;;;21.95;11.35;;;;;;;7.82;50.85;100640.41;5032985;28;20428;-77
2021/12/11 05:25:06;;;;;;;20.75;12.10;;;;;;;7.83;51.42;100651.09;5030902;28;20095;-77
2021/12/11 05:27:32;;;;;;;19.23;10.73;;;;;;;7.82;51.33;100656.63;5032790;28;20583;-77
2021/12/11 05:29:59;;;;;;;20.05;10.73;;;;;;;7.82;51.10;100656.63;5030378;28;20069;-77
2021/12/11 05:32:27;;;;;;;23.60;11.75;;;;;;;7.83;51.24;100664.63;5031646;28;20053;-76
2021/12/11 05:34:55;;;;;;;23.67;12.25;;;;;;;7.83;51.01;100667.31;5024162;28;20053;-76
2021/12/11 05:37:22;;;;;;;24.58;12.23;;;;;;;7.83;51.02;100675.44;5029257;28;20072;-76
2021/12/11 05:39:49;;;;;;;26.15;12.82;;;;;;;7.82;51.07;100676.41;5014503;28;20048;-76
2021/12/11 05:42:16;;;;;;;21.77;11.75;;;;;;;7.84;51.19;100681.72;5039153;28;20098;-76
2021/12/11 05:44:43;;;;;;;21.05;12.13;;;;;;;7.84;51.29;100692.53;5021880;28;20045;-76
2021/12/11 05:47:11;;;;;;;23.30;12.30;;;;;;;7.84;51.33;100687.13;5015056;28;20053;-78
2021/12/11 05:49:41;;;;;;;22.60;12.40;;;;;;;7.83;51.58;100699.75;5031258;28;20038;-76
2021/12/11 05:52:09;;;;;;;24.08;12.27;;;;;;;7.86;51.11;100699.59;5032376;28;20503;-76
2021/12/11 05:54:38;;;;;;;28.15;13.30;;;;;;;7.87;51.30;100708.56;5030398;28;20041;-76
2021/12/11 05:57:10;;;;;;;25.27;13.75;;;;;;;7.88;51.49;100710.31;5013867;28;20456;-76
2021/12/11 05:59:40;;;;;;;24.45;13.02;;;;;;;7.87;51.36;100724.78;5028184;28;20079;-76
2021/12/11 06:02:17;;;;;;;27.10;13.88;;;;;;;7.88;51.79;100724.72;5032250;28;20531;-76
2021/12/11 06:04:50;;;;;;;27.45;14.32;;;;;;;7.89;51.94;100731.00;5022511;28;20559;-77
2021/12/11 06:07:18;;;;;;;24.65;12.88;;;;;;;7.88;51.59;100731.94;5021516;28;20072;-77
2021/12/11 06:09:55;;;;;;;25.88;13.40;;;;;;;7.90;51.87;100727.31;5041839;28;20053;-76
2021/12/11 06:12:22;;;;;;;27.40;14.13;;;;;;;7.89;51.68;100734.56;5035176;28;20050;-76
2021/12/11 06:14:51;;;;;;;28.85;15.15;;;;;;;7.89;51.82;100731.00;5030651;28;20053;-76
2021/12/11 06:17:23;;;;;;;27.60;15.05;;;;;;;7.92;51.94;100741.59;5030783;28;20480;-77
2021/12/11 06:19:52;;;;;;;29.67;14.70;;;;;;;7.89;51.86;100741.81;5030791;28;20147;-76
2021/12/11 06:22:22;;;;;;;25.92;13.05;;;;;;;7.92;51.86;100747.00;5015042;28;20083;-76
2021/12/11 06:24:49;;;;;;;27.52;14.35;;;;;;;7.92;51.75;100753.28;5030498;28;20567;-76
2021/12/11 06:27:16;;;;;;;27.30;14.40;;;;;;;7.93;51.83;100755.03;5014731;28;20049;-76
2021/12/11 06:29:44;;;;;;;28.90;14.20;;;;;;;7.93;51.79;100754.16;5031093;28;20081;-76
2021/12/11 06:32:11;;;;;;;29.45;14.98;;;;;;;7.94;52.00;100767.59;5018120;28;20115;-76
2021/12/11 06:34:38;;;;;;;28.20;14.63;;;;;;;7.96;51.87;100764.81;5030504;28;20041;-76
2021/12/11 06:37:07;;;;;;;29.08;14.25;;;;;;;7.97;51.86;100770.13;5044957;28;20125;-76
2021/12/11 06:39:34;;;;;;;28.15;14.40;;;;;;;7.97;51.63;100778.25;5038410;28;20480;-76
2021/12/11 06:42:04;;;;;;;29.40;15.23;;;;;;;7.99;51.77;100779.00;5025793;28;20488;-77
2021/12/11 06:44:31;;;;;;;27.95;13.95;;;;;;;8.00;52.01;100782.59;5030548;28;20077;-76
2021/12/11 06:47:00;;;;;;;30.63;15.35;;;;;;;8.01;51.72;100785.22;5030432;28;20382;-76
2021/12/11 06:49:30;;;;;;;28.15;14.77;;;;;;;8.01;51.85;100792.44;5031129;28;20046;-77
2021/12/11 06:51:57;;;;;;;30.45;14.45;;;;;;;8.01;51.58;100801.44;5031031;28;20057;-77
2021/12/11 06:54:25;;;;;;;29.20;14.35;;;;;;;8.01;51.71;100805.97;5031413;28;20050;-76
2021/12/11 06:56:53;;;;;;;32.13;15.48;;;;;;;8.03;51.71;100813.03;5029955;28;20053;-77
2021/12/11 06:59:21;;;;;;;32.40;15.30;;;;;;;8.03;51.58;100823.84;5029662;28;20390;-77
2021/12/11 07:01:49;;;;;;;30.27;14.82;;;;;;;8.05;51.53;100828.31;5030441;28;20076;-77
2021/12/11 07:04:16;;;;;;;27.20;13.98;;;;;;;8.05;51.50;100833.72;5029942;28;20490;-77
2021/12/11 07:06:48;;;;;;;30.67;13.85;;;;;;;8.07;51.51;100840.75;5044327;28;20052;-77
2021/12/11 07:09:16;;;;;;;31.13;14.43;;;;;;;8.06;51.66;100833.63;5016124;28;20489;-77
2021/12/11 07:11:45;;;;;;;31.67;14.35;;;;;;;8.06;51.62;100827.34;5039899;28;20049;-77
2021/12/11 07:14:15;;;;;;;23.27;11.82;;;;;;;8.08;51.58;100844.31;5032958;28;20100;-76
2021/12/11 07:16:42;;;;;;;29.92;13.13;;;;;;;8.07;51.74;100850.72;5034725;28;20076;-77
2021/12/11 07:19:09;;;;;;;28.27;13.32;;;;;;;8.07;51.68;100851.56;5034359;28;20639;-77
2021/12/11 07:21:37;;;;;;;27.05;12.20;;;;;;;8.07;51.57;100862.38;5034400;28;20053;-77
2021/12/11 07:24:06;;;;;;;25.67;11.68;;;;;;;8.11;51.65;100865.81;5034042;28;20566;-77
2021/12/11 07:26:34;;;;;;;29.80;14.20;;;;;;;8.09;51.75;100865.00;5033986;28;20107;-77
2021/12/11 07:29:10;;;;;;;29.75;12.60;;;;;;;8.11;51.92;100865.81;5033535;28;20112;-77
2021/12/11 07:31:38;;;;;;;29.45;12.43;;;;;;;8.10;52.01;100878.44;5031915;28;20046;-77
2021/12/11 07:34:05;;;;;;;29.83;13.18;;;;;;;8.10;51.87;100878.44;5031617;28;20052;-77
2021/12/11 07:36:32;;;;;;;31.83;13.85;;;;;;;8.13;51.88;100877.41;5035169;28;20069;-77
2021/12/11 07:39:05;;;;;;;33.28;15.25;;;;;;;8.15;52.19;100880.91;5041227;28;20086;-77
2021/12/11 07:41:32;;;;;;;31.00;15.05;;;;;;;8.13;52.17;100888.22;5034894;28;20114;-77
2021/12/11 07:43:59;;;;;;;31.55;14.98;;;;;;;8.14;52.02;100892.69;5033505;28;20537;-77
2021/12/11 07:46:28;;;;;;;25.90;12.45;;;;;;;8.18;51.90;100905.06;5033822;28;20054;-77
2021/12/11 07:48:57;;;;;;;29.55;13.20;;;;;;;8.17;51.92;100900.59;5034074;28;20041;-77
2021/12/11 07:51:26;;;;;;;30.67;14.40;;;;;;;8.18;52.10;100911.34;5034040;28;20562;-77
2021/12/11 07:53:58;;;;;;;29.40;13.95;;;;;;;8.18;51.96;100914.03;5032156;28;20046;-77
2021/12/11 07:56:25;;;;;;;30.77;15.02;;;;;;;8.19;52.19;100923.91;5007836;28;20092;-77
2021/12/11 07:58:55;;;;;;;31.83;14.82;;;;;;;8.23;52.09;100917.38;5033748;28;20052;-77
2021/12/11 08:01:22;;;;;;;29.58;14.52;;;;;;;8.21;52.06;100924.69;5015929;28;20132;-77
2021/12/11 08:03:49;;;;;;;30.98;15.20;;;;;;;8.23;51.99;100928.19;5035406;28;20705;-77
2021/12/11 08:06:16;;;;;;;29.17;13.80;;;;;;;8.25;52.15;100934.38;5034438;28;20046;-77
2021/12/11 08:08:45;;;;;;;27.85;12.43;;;;;;;8.26;52.05;100933.41;5035730;28;20496;-77
2021/12/11 08:11:17;;;;;;;25.80;13.23;;;;;;;8.27;52.32;100937.88;5038020;28;20424;-77
2021/12/11 08:13:50;;;;;;;28.73;14.38;;;;;;;8.27;51.87;100939.69;5032254;28;20088;-77
2021/12/11 08:16:22;;;;;;;31.25;14.98;;;;;;;8.28;52.08;100949.56;5033268;28;20042;-77
2021/12/11 08:18:50;;;;;;;28.10;13.93;;;;;;;8.28;52.26;100952.28;5024508;28;20052;-77
2021/12/11 08:21:17;;;;;;;30.27;14.35;;;;;;;8.31;52.18;100954.84;5016278;28;20445;-77
2021/12/11 08:23:46;;;;;;;26.17;13.57;;;;;;;8.32;52.13;100952.03;5020235;28;20045;-77
2021/12/11 08:26:18;;;;;;;26.70;12.70;;;;;;;8.33;52.27;100961.03;5033466;28;20049;-77
2021/12/11 08:28:46;;;;;;;28.88;13.20;;;;;;;8.33;51.86;100970.00;5033405;28;20104;-77
2021/12/11 08:31:14;;;;;;;29.77;14.13;;;;;;;8.34;51.95;100966.34;5031740;28;20046;-77
2021/12/11 08:33:41;;;;;;;29.05;13.93;;;;;;;8.35;52.10;100976.22;5044248;28;20041;-77
2021/12/11 08:36:10;;;;;;;32.33;14.13;;;;;;;8.36;51.99;100977.09;5025983;28;20050;-77
2021/12/11 08:38:41;;;;;;;30.25;14.60;;;;;;;8.35;51.89;100976.22;5034645;28;20044;-77
2021/12/11 08:41:09;;;;;;;28.58;14.23;;;;;;;8.38;52.06;100983.31;5039232;28;20051;-76
2021/12/11 08:43:37;;;;;;;32.60;14.38;;;;;;;8.37;52.10;100978.84;5032147;28;20052;-77
2021/12/11 08:46:13;;;;;;;32.35;14.10;;;;;;;8.38;52.15;100988.72;5033047;28;20092;-77
2021/12/11 08:48:46;;;;;;;29.92;14.18;;;;;;;8.39;52.27;100987.75;5031251;28;20042;-77
2021/12/11 08:51:24;;;;;;;30.02;13.38;;;;;;;8.39;52.53;101002.16;5031879;28;20045;-76
2021/12/11 08:53:51;;;;;;;29.63;13.77;;;;;;;8.39;51.87;101002.16;5031621;28;20085;-76
2021/12/11 08:56:21;;;;;;;32.35;14.20;;;;;;;8.39;52.16;101004.88;5034218;28;20436;-76
2021/12/11 08:58:49;;;;;;;31.38;13.63;;;;;;;8.40;52.30;101006.59;5030721;28;20453;-76
2021/12/11 09:01:27;;;;;;;31.52;13.98;;;;;;;8.44;52.25;101006.44;5032362;28;20390;-77
2021/12/11 09:04:17;;;;;;;30.65;14.50;;;;;;;8.43;52.73;101000.13;5030686;28;20136;-77
2021/12/11 09:06:51;;;;;;;29.38;14.23;;;;;;;8.44;52.18;101004.59;5034348;28;20080;-77
2021/12/11 09:09:21;;;;;;;30.98;14.70;;;;;;;8.46;52.17;101013.50;5017341;28;20049;-77
2021/12/11 09:12:07;;;;;;;29.25;13.32;;;;;;;8.48;52.45;101010.72;5045173;28;20054;-77
2021/12/11 09:14:44;;;;;;;29.83;13.82;;;;;;;8.47;52.24;101012.56;5018325;28;20045;-77
2021/12/11 09:17:20;;;;;;;30.38;13.82;;;;;;;8.46;52.21;101010.81;5033673;28;20053;-79
2021/12/11 09:23:51;;;;;;;27.27;12.55;;;;;;;8.45;52.51;101036.09;5014084;28;20039;-77
2021/12/11 09:26:33;;;;;;;28.58;12.90;;;;;;;8.46;52.82;101037.84;5010188;28;20385;-78
2021/12/11 09:29:13;;;;;;;33.63;14.50;;;;;;;8.48;52.77;101040.50;5032212;28;20459;-78
2021/12/11 09:32:06;;;;;;;27.92;13.75;;;;;;;8.48;52.62;101032.38;5047558;28;20049;-78
2021/12/11 09:34:43;;;;;;;29.00;13.23;;;;;;;8.47;52.64;101038.72;4991321;28;20037;-79
2021/12/11 09:37:10;;;;;;;33.28;15.75;;;;;;;8.46;52.33;101042.41;5033430;28;20088;-77
2021/12/11 09:39:46;;;;;;;32.70;14.65;;;;;;;8.49;52.84;101048.50;5032724;28;20069;-79
2021/12/11 09:42:12;;;;;;;26.95;12.95;;;;;;;8.47;52.38;101049.56;5034671;28;20108;-79
2021/12/11 09:44:48;;;;;;;25.27;12.50;;;;;;;8.50;52.98;101055.66;5031464;28;20042;-79
2021/12/11 09:47:30;;;;;;;31.40;13.90;;;;;;;8.50;53.04;101052.94;5021314;28;20053;-80
2021/12/11 09:50:08;;;;;;;32.05;15.80;;;;;;;8.49;52.86;101053.91;5031415;28;20046;-79
2021/12/11 09:52:38;;;;;;;30.13;15.10;;;;;;;8.51;52.63;101056.53;5033872;28;20045;-79
2021/12/11 09:55:23;;;;;;;33.38;15.32;;;;;;;8.53;53.45;101052.78;5018619;28;20069;-79
2021/12/11 09:57:55;;;;;;;27.58;13.55;;;;;;;8.52;53.00;101052.88;5027758;28;20046;-77
2021/12/11 10:00:34;;;;;;;29.52;14.63;;;;;;;8.54;53.42;101054.53;5033459;28;20067;-79
2021/12/11 10:03:05;;;;;;;26.92;12.68;;;;;;;8.52;52.66;101061.88;5027460;28;20048;-78
2021/12/11 10:05:44;;;;;;;33.17;15.63;;;;;;;8.54;53.06;101053.66;5037578;28;20476;-78
2021/12/11 10:11:08;;;;;;;31.40;15.35;;;;;;;8.55;53.54;101061.72;5039682;28;20496;-79
2021/12/11 10:13:43;;;;;;;31.67;14.85;;;;;;;8.54;53.21;101064.50;5023083;28;20049;-78
2021/12/11 10:16:10;;;;;;;27.50;14.15;;;;;;;8.55;52.89;101063.53;5027954;28;20045;-77
2021/12/11 10:18:38;;;;;;;29.40;13.88;;;;;;;8.56;53.05;101071.56;5030560;28;20095;-77
2021/12/11 10:21:23;;;;;;;32.50;15.27;;;;;;;8.58;53.82;101071.47;5014189;28;20052;-77
2021/12/11 10:23:56;;;;;;;29.73;14.65;;;;;;;8.59;53.59;101067.81;5030876;28;20053;-77
2021/12/11 10:26:25;;;;;;;29.38;14.43;;;;;;;8.59;53.08;101079.50;5015651;28;20053;-76
2021/12/11 10:28:56;;;;;;;28.77;13.90;;;;;;;8.61;53.16;101072.19;5032195;28;20099;-76
2021/12/11 10:31:34;;;;;;;28.88;13.18;;;;;;;8.63;53.47;101074.81;5030268;28;20099;-76
2021/12/11 10:34:05;;;;;;;29.73;14.60;;;;;;;8.62;53.50;101065.81;5031947;28;20503;-76
2021/12/11 10:36:36;;;;;;;29.58;14.10;;;;;;;8.64;53.34;101076.56;5018900;28;20054;-76
2021/12/11 10:39:07;;;;;;;29.88;14.40;;;;;;;8.67;53.40;101087.19;5030848;28;20045;-76
2021/12/11 10:41:34;;;;;;;27.58;13.73;;;;;;;8.66;53.12;101085.44;5027869;28;20046;-77
2021/12/11 10:44:09;;;;;;;28.83;13.18;;;;;;;8.69;53.64;101091.59;5042383;28;20049;-76
2021/12/11 10:46:58;;;;;;;28.23;13.45;;;;;;;8.68;53.59;101087.13;5029505;28;20045;-76
2021/12/11 10:49:27;;;;;;;26.65;12.70;;;;;;;8.69;52.98;101088.88;5030145;28;20124;-76
2021/12/11 10:51:59;;;;;;;25.85;12.60;;;;;;;8.72;53.33;101091.44;5050047;28;20045;-76
2021/12/11 10:54:27;;;;;;;24.88;12.07;;;;;;;8.73;53.40;101095.84;5033862;28;20045;-76
2021/12/11 10:56:55;;;;;;;24.67;11.80;;;;;;;8.73;53.22;101094.97;5024540;28;20451;-77
2021/12/11 10:59:25;;;;;;;27.55;12.00;;;;;;;8.76;53.15;101094.81;5034659;28;20081;-76
2021/12/11 11:01:58;;;;;;;24.08;12.60;;;;;;;8.79;53.30;101097.38;5037014;28;20077;-76
2021/12/11 11:04:34;;;;;;;25.02;11.70;;;;;;;8.78;53.14;101088.38;5033719;28;20041;-76
2021/12/11 11:07:01;;;;;;;25.25;11.95;;;;;;;8.80;53.04;101096.41;5041338;28;20061;-76
2021/12/11 11:09:28;;;;;;;27.73;13.18;;;;;;;8.81;53.07;101090.03;5038716;28;20652;-76
2021/12/11 11:11:58;;;;;;;25.05;12.15;;;;;;;8.85;53.23;101097.00;5037260;28;20103;-76
2021/12/11 11:14:26;;;;;;;24.63;11.70;;;;;;;8.85;53.15;101090.72;5033487;28;20037;-76
2021/12/11 11:17:02;;;;;;;25.45;12.45;;;;;;;8.88;53.40;101093.28;5024025;28;20049;-76
2021/12/11 11:19:30;;;;;;;24.33;12.07;;;;;;;8.87;53.20;101089.69;5034163;28;20496;-77
2021/12/11 11:22:00;;;;;;;26.42;12.85;;;;;;;8.89;53.20;101100.44;5033866;28;20068;-76
2021/12/11 11:24:34;;;;;;;24.55;11.45;;;;;;;8.91;53.39;101107.50;5033855;28;20049;-76
2021/12/11 11:27:03;;;;;;;27.67;12.60;;;;;;;8.91;53.56;101118.31;5033376;28;20119;-78
2021/12/11 11:29:30;;;;;;;22.15;11.40;;;;;;;8.90;53.35;101116.56;5033260;28;20099;-75
2021/12/11 11:32:03;;;;;;;24.75;11.15;;;;;;;8.94;53.54;101122.72;5030585;28;20046;-75
2021/12/11 11:34:31;;;;;;;24.92;11.93;;;;;;;8.93;53.45;101121.81;5030725;28;20049;-76
2021/12/11 11:37:02;;;;;;;25.45;11.65;;;;;;;8.96;53.32;101129.78;5036109;28;20347;-75
2021/12/11 11:39:30;;;;;;;27.70;11.23;;;;;;;8.97;53.50;101136.09;5034739;28;20072;-77
2021/12/11 11:42:01;;;;;;;20.08;10.82;;;;;;;8.99;53.38;101131.44;5020969;28;20045;-76
2021/12/11 11:44:29;;;;;;;20.58;10.82;;;;;;;9.00;53.22;101131.34;5023249;28;20045;-76
2021/12/11 11:47:00;;;;;;;24.08;11.32;;;;;;;9.03;53.42;101133.91;5034053;28;20076;-77
2021/12/11 11:49:28;;;;;;;24.90;11.57;;;;;;;9.03;53.23;101130.31;5033889;28;20042;-77
2021/12/11 11:52:08;;;;;;;20.67;10.90;;;;;;;9.07;53.95;101140.88;5016155;28;20049;-77
2021/12/11 11:54:37;;;;;;;26.30;11.57;;;;;;;9.04;53.08;101149.19;5029279;28;20045;-77
2021/12/11 11:57:38;;;;;;;24.85;11.48;;;;;;;9.08;53.50;101148.03;5033177;28;20045;-77
2021/12/11 12:00:18;;;;;;;23.50;12.13;;;;;;;9.07;54.03;101150.84;5003515;28;20050;-76
2021/12/11 12:02:45;;;;;;;23.38;12.05;;;;;;;9.06;53.17;101152.66;5027373;28;20095;-77
2021/12/11 12:05:13;;;;;;;23.00;11.35;;;;;;;9.07;53.58;101154.41;5034298;28;20057;-77
2021/12/11 12:07:40;;;;;;;24.23;12.38;;;;;;;9.09;53.59;101157.06;5040963;28;20103;-77
2021/12/11 12:10:16;;;;;;;23.88;12.10;;;;;;;9.11;54.37;101157.84;5032858;28;20427;-77